createdAt,value
2022-10-14T00:01:15.769Z,38.70
2022-10-14T00:04:48.006Z,41.90
2022-10-14T00:08:14.642Z,39.90
2022-10-14T00:11:41.931Z,40.40
2022-10-14T00:15:11.060Z,40.20
2022-10-14T00:18:37.595Z,44.90
2022-10-14T00:22:04.510Z,43.30
2022-10-14T00:25:31.363Z,40.80
2022-10-14T00:28:59.747Z,40.20
2022-10-14T00:32:30.486Z,33.00
2022-10-14T00:35:59.567Z,47.20
2022-10-14T00:39:30.635Z,40.60
2022-10-14T00:42:57.621Z,37.30
2022-10-14T00:46:24.644Z,36.90
2022-10-14T00:49:55.421Z,34.40
2022-10-14T00:53:23.089Z,44.80
2022-10-14T00:56:51.777Z,42.60
2022-10-14T01:00:22.291Z,38.50
2022-10-14T01:03:49.882Z,43.40
2022-10-14T01:07:32.980Z,38.40
2022-10-14T01:11:08.960Z,41.50
2022-10-14T01:14:46.239Z,38.60
2022-10-14T01:18:28.659Z,42.50
2022-10-14T01:22:03.425Z,44.60
2022-10-14T01:25:35.199Z,44.50
2022-10-14T01:29:16.785Z,44.70
2022-10-14T01:32:52.028Z,44.20
2022-10-14T01:36:24.066Z,40.20
2022-10-14T01:39:55.919Z,39.10
2022-10-14T01:43:25.845Z,44.50
2022-10-14T01:46:56.490Z,42.10
2022-10-14T01:50:25.765Z,40.80
2022-10-14T01:53:59.297Z,39.80
2022-10-14T01:57:29.168Z,41.60
2022-10-14T02:00:57.582Z,40.30
2022-10-14T02:04:25.178Z,43.90
2022-10-14T02:07:58.941Z,45.50
2022-10-14T02:11:26.853Z,41.30
2022-10-14T02:15:02.403Z,41.10
2022-10-14T02:18:37.033Z,50.40
2022-10-14T02:22:10.342Z,45.70
2022-10-14T02:25:40.369Z,43.80
2022-10-14T02:29:08.682Z,49.80
2022-10-14T02:32:36.895Z,41.20
2022-10-14T02:36:06.886Z,43.40
2022-10-14T02:39:40.522Z,40.90
2022-10-14T02:43:10.452Z,48.90
2022-10-14T02:46:37.517Z,41.70
2022-10-14T02:50:04.461Z,38.60
2022-10-14T02:53:31.988Z,37.30
2022-10-14T02:56:58.419Z,38.00
2022-10-14T03:00:25.279Z,43.10
2022-10-14T03:03:53.906Z,46.20
2022-10-14T03:07:22.634Z,44.10
2022-10-14T03:10:51.054Z,42.20
2022-10-14T03:14:18.066Z,44.70
2022-10-14T03:17:45.717Z,46.50
2022-10-14T03:21:12.714Z,46.80
2022-10-14T03:24:40.967Z,41.70
2022-10-14T03:28:23.790Z,52.50
2022-10-14T03:32:12.555Z,42.60
2022-10-14T03:36:09.412Z,45.80
2022-10-14T03:39:42.952Z,44.70
2022-10-14T03:43:09.597Z,45.20
2022-10-14T03:46:43.513Z,41.70
2022-10-14T03:50:11.700Z,49.00
2022-10-14T03:53:48.151Z,45.00
2022-10-14T03:57:18.406Z,45.30
2022-10-14T04:00:49.952Z,43.00
2022-10-14T04:04:26.025Z,43.90
2022-10-14T04:07:52.863Z,49.60
2022-10-14T04:11:19.847Z,41.70
2022-10-14T04:14:48.091Z,53.00
2022-10-14T04:18:14.931Z,44.50
2022-10-14T04:21:42.225Z,47.80
2022-10-14T04:25:11.456Z,46.30
2022-10-14T04:28:39.061Z,50.20
2022-10-14T04:32:13.461Z,49.70
2022-10-14T04:35:42.847Z,51.10
2022-10-14T04:39:16.308Z,53.70
2022-10-14T04:42:43.602Z,49.40
2022-10-14T04:46:18.716Z,47.30
2022-10-14T04:49:45.686Z,47.00
2022-10-14T04:53:21.769Z,52.00
2022-10-14T04:56:59.263Z,48.90
2022-10-14T05:00:26.335Z,50.70
2022-10-14T05:04:01.500Z,49.40
2022-10-14T05:07:32.780Z,49.90
2022-10-14T05:11:08.643Z,42.10
2022-10-14T05:14:40.928Z,52.60
2022-10-14T05:18:15.919Z,53.70
2022-10-14T05:21:57.612Z,48.70
2022-10-14T05:25:31.326Z,49.10
2022-10-14T05:28:58.932Z,52.40
2022-10-14T05:32:25.943Z,49.90
2022-10-14T05:36:00.037Z,51.70
2022-10-14T05:39:29.577Z,55.30
2022-10-14T05:42:57.245Z,52.40
2022-10-14T05:46:24.106Z,54.40
2022-10-14T05:49:53.686Z,52.60
2022-10-14T05:53:20.736Z,52.60
2022-10-14T05:56:49.086Z,59.00
2022-10-14T06:00:24.671Z,53.40
2022-10-14T06:03:54.848Z,61.70
2022-10-14T06:07:21.377Z,47.50
2022-10-14T06:10:48.124Z,58.00
2022-10-14T06:14:15.727Z,47.10
2022-10-14T06:17:43.710Z,53.60
2022-10-14T06:21:12.167Z,53.10
2022-10-14T06:24:39.353Z,56.60
2022-10-14T06:28:10.251Z,55.00
2022-10-14T06:31:36.696Z,56.50
2022-10-14T06:35:03.803Z,59.00
2022-10-14T06:38:30.248Z,61.80
2022-10-14T06:41:56.928Z,69.10
2022-10-14T06:45:23.705Z,58.90
2022-10-14T06:48:51.182Z,65.20
2022-10-14T06:52:20.229Z,70.50
2022-10-14T06:55:48.366Z,69.40
2022-10-14T06:59:20.235Z,73.30
2022-10-14T07:02:49.912Z,67.70
2022-10-14T07:06:17.271Z,62.00
2022-10-14T07:09:43.703Z,64.10
2022-10-14T07:13:12.023Z,60.00
2022-10-14T07:16:38.760Z,69.60
2022-10-14T07:20:06.042Z,59.80
2022-10-14T07:23:32.770Z,69.40
2022-10-14T07:26:59.246Z,77.00
2022-10-14T07:30:26.202Z,62.30
2022-10-14T07:33:53.130Z,63.20
2022-10-14T07:37:20.561Z,61.80
2022-10-14T07:40:47.485Z,70.20
2022-10-14T07:44:17.033Z,62.20
2022-10-14T07:47:43.594Z,62.10
2022-10-14T07:51:10.626Z,63.40
2022-10-14T07:54:36.911Z,65.60
2022-10-14T07:58:03.542Z,64.40
2022-10-14T08:01:30.324Z,58.00
2022-10-14T08:05:18.875Z,86.50
2022-10-14T08:08:46.935Z,77.00
2022-10-14T08:12:14.519Z,64.50
2022-10-14T08:15:43.530Z,66.70
2022-10-14T08:19:15.131Z,64.90
2022-10-14T08:22:41.775Z,62.00
2022-10-14T08:26:21.625Z,68.10
2022-10-14T08:29:55.950Z,67.80
2022-10-14T08:33:24.565Z,65.30
2022-10-14T08:36:51.406Z,61.40
2022-10-14T08:40:19.654Z,61.90
2022-10-14T08:43:52.123Z,66.80
2022-10-14T08:47:23.133Z,65.90
2022-10-14T08:50:57.519Z,58.30
2022-10-14T08:54:32.093Z,66.40
2022-10-14T08:58:05.026Z,61.70
2022-10-14T09:01:36.250Z,55.90
2022-10-14T09:05:05.309Z,71.30
2022-10-14T09:08:40.069Z,64.50
2022-10-14T09:12:13.320Z,60.90
2022-10-14T09:15:43.202Z,61.70
2022-10-14T09:19:20.192Z,68.80
2022-10-14T09:26:30.247Z,65.30
2022-10-14T09:30:03.439Z,59.80
2022-10-14T09:36:59.661Z,57.10
2022-10-14T09:40:33.899Z,56.90
2022-10-14T09:47:51.223Z,57.70
2022-10-14T09:51:25.412Z,55.50
2022-10-14T09:58:27.579Z,60.30
2022-10-14T10:01:57.786Z,68.00
2022-10-14T10:05:29.808Z,60.60
2022-10-14T10:09:01.674Z,57.50
2022-10-14T10:12:41.864Z,55.70
2022-10-14T10:16:20.054Z,52.30
2022-10-14T10:19:48.354Z,60.80
2022-10-14T10:23:26.501Z,60.10
2022-10-14T10:26:53.286Z,54.40
2022-10-14T10:30:27.541Z,59.00
2022-10-14T10:34:02.027Z,54.40
2022-10-14T10:37:38.642Z,56.60
2022-10-14T10:41:27.440Z,50.10
2022-10-14T10:45:18.731Z,59.40
2022-10-14T10:54:38.237Z,46.40
2022-10-14T10:58:20.800Z,41.90
2022-10-14T11:02:04.438Z,49.70
2022-10-14T11:06:05.971Z,40.90
2022-10-14T11:10:52.852Z,45.80
2022-10-14T11:14:34.637Z,48.30
2022-10-14T11:18:05.462Z,47.20
2022-10-14T11:21:41.731Z,49.30
2022-10-14T11:25:22.999Z,40.70
2022-10-14T11:28:57.968Z,45.40
2022-10-14T11:32:32.124Z,36.50
2022-10-14T11:36:13.731Z,39.20
2022-10-14T11:39:50.117Z,36.00
2022-10-14T11:43:32.662Z,36.90
2022-10-14T11:47:04.758Z,38.30
2022-10-14T11:50:38.250Z,36.50
2022-10-14T11:54:11.807Z,31.70
2022-10-14T11:57:42.901Z,34.70
2022-10-14T12:01:20.569Z,28.90
2022-10-14T12:04:53.504Z,30.60
2022-10-14T12:08:28.475Z,26.80
2022-10-14T12:12:03.178Z,28.40
2022-10-14T12:19:02.369Z,33.60
2022-10-14T12:22:31.923Z,32.10
2022-10-14T12:26:08.296Z,28.10
2022-10-14T12:29:38.810Z,32.00
2022-10-14T12:33:08.228Z,31.00
2022-10-14T12:40:27.626Z,25.90
2022-10-14T12:44:04.815Z,28.10
2022-10-14T12:47:35.445Z,22.80
2022-10-14T12:51:22.363Z,30.70
2022-10-14T12:58:27.372Z,36.70
2022-10-14T13:02:02.223Z,31.50
2022-10-14T13:05:35.180Z,27.90
2022-10-14T13:12:47.605Z,31.00
2022-10-14T13:17:06.057Z,30.60
2022-10-14T13:20:54.061Z,31.80
2022-10-14T13:24:27.048Z,29.30
2022-10-14T13:31:32.227Z,30.80
2022-10-14T13:35:08.889Z,28.90
2022-10-14T13:38:36.619Z,25.50
2022-10-14T13:42:04.711Z,30.10
2022-10-14T13:45:41.144Z,27.10
2022-10-14T13:52:55.200Z,25.10
2022-10-14T13:56:26.764Z,27.30
2022-10-14T14:03:44.779Z,39.10
2022-10-14T14:07:47.695Z,35.30
2022-10-14T14:11:16.637Z,34.30
2022-10-14T14:14:47.264Z,39.10
2022-10-14T14:21:48.540Z,30.30
2022-10-14T14:25:33.422Z,28.30
2022-10-14T14:29:05.257Z,29.00
2022-10-14T14:32:34.562Z,23.50
2022-10-14T14:36:03.459Z,26.30
2022-10-14T14:39:32.956Z,28.40
2022-10-14T14:43:03.030Z,31.70
2022-10-14T14:46:33.509Z,32.30
2022-10-14T14:50:25.389Z,28.10
2022-10-14T14:53:54.540Z,29.60
2022-10-14T14:57:24.305Z,32.80
2022-10-14T15:00:55.308Z,29.40
2022-10-14T15:04:25.546Z,26.70
2022-10-14T15:07:52.958Z,25.80
2022-10-14T15:11:20.800Z,24.30
2022-10-14T15:14:50.150Z,32.00
2022-10-14T15:18:22.197Z,28.30
2022-10-14T15:22:09.208Z,27.30
2022-10-14T15:25:36.628Z,20.50
2022-10-14T15:29:17.113Z,27.40
2022-10-14T15:32:44.916Z,20.50
2022-10-14T15:36:15.183Z,25.10
2022-10-14T15:39:43.323Z,22.00
2022-10-14T15:43:18.158Z,22.60
2022-10-14T15:47:05.070Z,17.80
2022-10-14T15:50:32.298Z,19.70
2022-10-14T15:53:58.799Z,23.10
2022-10-14T15:57:26.233Z,21.90
2022-10-14T16:00:53.965Z,21.50
2022-10-14T16:04:24.996Z,21.50
2022-10-14T16:07:57.559Z,16.30
2022-10-14T16:11:30.120Z,20.60
2022-10-14T16:14:59.635Z,27.20
2022-10-14T16:18:29.625Z,28.10
2022-10-14T16:21:59.651Z,47.60
2022-10-14T16:25:34.546Z,51.00
2022-10-14T16:29:05.468Z,72.70
2022-10-14T16:32:36.259Z,84.00
2022-10-14T16:36:03.205Z,127.70
2022-10-14T16:39:30.725Z,131.70
2022-10-14T16:42:57.809Z,126.30
2022-10-14T16:46:45.408Z,66.50
2022-10-14T16:50:14.246Z,75.00
2022-10-14T16:53:45.716Z,72.70
2022-10-14T16:57:13.592Z,72.40
2022-10-14T17:00:42.888Z,51.90
2022-10-14T17:04:13.575Z,53.00
2022-10-14T17:07:40.987Z,41.30
2022-10-14T17:11:08.313Z,38.30
2022-10-14T17:14:37.928Z,41.80
2022-10-14T17:18:05.761Z,34.50
2022-10-14T17:21:32.854Z,34.90
2022-10-14T17:25:00.556Z,40.20
2022-10-14T17:28:27.347Z,39.60
2022-10-14T17:31:54.659Z,47.30
2022-10-14T17:35:21.303Z,96.50
2022-10-14T17:38:48.728Z,178.20
2022-10-14T17:42:15.724Z,190.00
2022-10-14T17:45:43.285Z,230.20
2022-10-14T17:49:15.313Z,198.20
2022-10-14T17:52:45.349Z,200.00
2022-10-14T17:56:15.270Z,307.70
2022-10-14T17:59:41.979Z,369.40
2022-10-14T18:03:13.025Z,369.40
2022-10-14T18:06:39.887Z,297.90
2022-10-14T18:10:08.430Z,278.70
2022-10-14T18:13:35.767Z,221.70
2022-10-14T18:17:03.276Z,163.30
2022-10-14T18:20:32.175Z,144.20
2022-10-14T18:23:59.589Z,102.30
2022-10-14T18:27:27.370Z,77.40
2022-10-14T18:30:53.904Z,78.60
2022-10-14T18:34:22.542Z,101.00
2022-10-14T18:37:52.833Z,85.40
2022-10-14T18:41:23.769Z,92.00
2022-10-14T18:44:51.942Z,70.10
2022-10-14T18:48:22.344Z,61.50
2022-10-14T18:51:49.495Z,57.10
2022-10-14T18:55:16.124Z,60.80
2022-10-14T18:58:43.012Z,52.90
2022-10-14T19:02:14.832Z,41.70
2022-10-14T19:05:42.404Z,51.60
2022-10-14T19:09:18.453Z,51.00
2022-10-14T19:12:45.259Z,54.10
2022-10-14T19:16:16.884Z,67.50
2022-10-14T19:19:44.954Z,62.90
2022-10-14T19:23:12.221Z,70.90
2022-10-14T19:26:43.180Z,71.80
2022-10-14T19:30:12.330Z,75.70
2022-10-14T19:33:40.970Z,77.40
2022-10-14T19:37:07.564Z,76.10
2022-10-14T19:40:34.076Z,72.00
2022-10-14T19:44:03.672Z,114.60
2022-10-14T19:47:31.008Z,255.80
2022-10-14T19:51:06.287Z,245.90
2022-10-14T19:54:34.280Z,348.00
2022-10-14T19:58:08.317Z,522.10
2022-10-14T20:01:35.699Z,452.50
2022-10-14T20:05:11.813Z,433.80
2022-10-14T20:08:41.397Z,335.60
2022-10-14T20:12:18.289Z,246.10
2022-10-14T20:15:56.398Z,196.30
2022-10-14T20:19:23.760Z,196.90
2022-10-14T20:22:50.757Z,181.30
2022-10-14T20:26:21.144Z,154.30
2022-10-14T20:29:54.201Z,168.60
2022-10-14T20:33:21.720Z,142.70
2022-10-14T20:36:49.570Z,141.80
2022-10-14T20:40:18.584Z,128.90
2022-10-14T20:43:48.327Z,112.10
2022-10-14T20:47:16.897Z,107.00
2022-10-14T20:50:47.264Z,102.10
2022-10-14T20:54:17.587Z,104.70
2022-10-14T20:57:44.920Z,109.00
2022-10-14T21:01:15.401Z,105.70
2022-10-14T21:04:43.989Z,97.60
2022-10-14T21:08:15.772Z,94.00
2022-10-14T21:11:43.839Z,81.00
2022-10-14T21:15:13.303Z,81.30
2022-10-14T21:18:40.142Z,84.10
2022-10-14T21:22:14.947Z,78.40
2022-10-14T21:25:42.590Z,75.10
2022-10-14T21:29:19.911Z,79.40
2022-10-14T21:33:00.625Z,78.30
2022-10-14T21:36:37.296Z,85.40
2022-10-14T21:40:19.079Z,79.40
2022-10-14T21:43:47.144Z,80.40
2022-10-14T21:47:20.510Z,89.60
2022-10-14T21:50:49.497Z,79.80
2022-10-14T21:54:28.318Z,78.20
2022-10-14T21:57:56.353Z,76.10
2022-10-14T22:01:26.377Z,76.40
2022-10-14T22:04:53.432Z,76.80
2022-10-14T22:08:24.226Z,70.30
2022-10-14T22:11:55.161Z,64.30
2022-10-14T22:15:22.109Z,68.90
2022-10-14T22:18:53.889Z,64.70
2022-10-14T22:22:21.138Z,65.90
2022-10-14T22:25:47.771Z,61.70
2022-10-14T22:29:16.570Z,73.40
2022-10-14T22:32:47.306Z,65.30
2022-10-14T22:36:21.058Z,68.40
2022-10-14T22:39:53.265Z,68.80
2022-10-14T22:43:20.448Z,70.70
2022-10-14T22:46:49.462Z,76.70
2022-10-14T22:50:19.151Z,73.80
2022-10-14T22:53:49.817Z,74.70
2022-10-14T22:57:17.277Z,68.70
2022-10-14T23:00:44.190Z,76.00
2022-10-14T23:04:12.412Z,72.10
2022-10-14T23:07:41.769Z,82.30
2022-10-14T23:11:10.341Z,72.00
2022-10-14T23:14:37.222Z,74.40
2022-10-14T23:18:05.363Z,69.10
2022-10-14T23:21:34.033Z,72.90
2022-10-14T23:25:01.171Z,72.10
2022-10-14T23:28:28.576Z,70.50
2022-10-14T23:31:58.443Z,65.30
2022-10-14T23:35:26.282Z,73.40
2022-10-14T23:38:56.311Z,73.90
2022-10-14T23:42:23.159Z,72.90
2022-10-14T23:49:28.207Z,91.20
2022-10-14T23:52:54.880Z,89.20
2022-10-14T23:56:21.687Z,92.90
2022-10-14T23:59:48.423Z,84.60
